Weather reports worldwide

Advertisment
Bealach, United Kingdom (3039): temperature & dewpoint: 29.07.2020 15:00:00 - 04.08.2020 15:00:00 (BST)Bealach, United Kingdom (3039): wind speed & gusts: 29.07.2020 15:00:00 - 04.08.2020 15:00:00 (BST)Bealach, United Kingdom (3039): wind direction: 29.07.2020 15:00:00 - 04.08.2020 15:00:00 (BST)
Date & Time tt [°C] td [°C] ff [km/h] ff [kn] fx [km/h] fx [kn] dd
04.08.2020 15:00:00 10,4 10,4 37 20 61 33 S
04.08.2020 14:00:00 9,8 9,8 29 16 72 39 S
04.08.2020 13:00:00 9,2 9,2 41 22 78 42 S
04.08.2020 12:00:00 8,5 8,5 42 23 67 36 SSE
04.08.2020 11:00:00 7,8 7,7 42 23 67 36 SSE
04.08.2020 10:00:00 6,8 6,8 44 24 61 33 SSE
04.08.2020 09:00:00 6,4 6,4 29 16 65 35 SSE
04.08.2020 08:00:00 6,2 6,2 46 25 63 34 SSE
04.08.2020 07:00:00 6,1 6,1 42 23 81 44 SSE
04.08.2020 06:00:00 6,5 5,8 41 22 76 41 S
04.08.2020 05:00:00 6,4 6,2 31 17 67 36 SSE
04.08.2020 04:00:00 6,4 6,4 55 30 72 39 S
04.08.2020 03:00:00 6,6 6,5 44 24 70 38 S
04.08.2020 02:00:00 6,4 6,4 34 18 65 35 S
04.08.2020 01:00:00 6,3 6,3 54 29 70 38 SSW
04.08.2020 00:00:00 6,9 6,8 48 26 67 36 SSW
03.08.2020 23:00:00 6,4 6,4 42 23 54 29 SSW
03.08.2020 22:00:00 6,8 6,8 35 19 50 27 SSW
03.08.2020 21:00:00 6,5 6,5 21 11 - - SW
03.08.2020 20:00:00 6,6 6,5 26 14 - - SW
03.08.2020 19:00:00 6,5 6,2 21 11 - - WSW
03.08.2020 18:00:00 6,4 5,9 28 15 48 26 WSW
03.08.2020 17:00:00 6,4 6,1 35 19 46 25 WSW
03.08.2020 16:00:00 7,8 4,1 35 19 46 25 WSW
03.08.2020 15:00:00 7,5 4,1 35 19 50 27 WSW
03.08.2020 14:00:00 7,5 4,0 35 19 - - WSW
03.08.2020 13:00:00 7,1 3,8 24 13 - - SW
03.08.2020 12:00:00 7,1 5,0 29 16 - - WSW
03.08.2020 11:00:00 6,1 5,2 29 16 - - WSW
03.08.2020 10:00:00 5,4 5,4 31 17 - - WSW
03.08.2020 09:00:00 4,9 4,9 22 12 - - WSW
03.08.2020 08:00:00 4,4 4,4 28 15 - - WSW
03.08.2020 07:00:00 4,4 4,4 29 16 - - W
03.08.2020 06:00:00 4,3 4,3 26 14 - - WSW
03.08.2020 05:00:00 4,0 4,0 37 20 46 25 W
03.08.2020 04:00:00 4,8 4,8 21 11 - - WSW
03.08.2020 03:00:00 5,2 5,2 29 16 - - WSW
03.08.2020 02:00:00 5,3 5,3 29 16 - - WSW
03.08.2020 01:00:00 5,4 5,4 29 16 - - SW
03.08.2020 00:00:00 5,2 5,2 22 12 - - SW
02.08.2020 23:00:00 5,6 5,6 29 16 - - WSW
02.08.2020 22:00:00 5,4 5,4 28 15 - - W
02.08.2020 21:00:00 5,5 5,2 31 17 - - W
02.08.2020 20:00:00 5,6 5,0 35 19 - - WSW
02.08.2020 19:00:00 5,9 4,8 37 20 46 25 WSW
02.08.2020 18:00:00 6,0 4,6 29 16 - - WSW
02.08.2020 17:00:00 6,9 4,3 29 16 48 26 WSW
02.08.2020 16:00:00 7,3 4,1 39 21 50 27 WSW
02.08.2020 15:00:00 6,7 5,5 34 18 - - WSW
02.08.2020 14:00:00 6,7 4,2 35 19 48 26 WSW
02.08.2020 13:00:00 6,1 6,0 37 20 52 28 WSW
02.08.2020 12:00:00 6,5 5,0 28 15 - - WSW
02.08.2020 11:00:00 6,1 5,9 29 16 - - WSW
02.08.2020 10:00:00 5,8 5,8 22 12 - - WSW
02.08.2020 09:00:00 5,7 5,7 28 15 - - W
02.08.2020 08:00:00 5,7 5,7 31 17 48 26 W
02.08.2020 07:00:00 6,3 6,3 35 19 - - WSW
02.08.2020 06:00:00 6,5 6,5 34 18 - - W
02.08.2020 05:00:00 6,7 6,7 24 13 - - WSW
02.08.2020 04:00:00 6,6 6,6 24 13 - - WSW
02.08.2020 03:00:00 6,5 6,5 24 13 - - WSW
02.08.2020 02:00:00 6,7 6,7 26 14 - - SW
02.08.2020 01:00:00 6,7 6,7 34 18 46 25 SW
02.08.2020 00:00:00 6,6 6,6 31 17 48 26 SSW
01.08.2020 23:00:00 6,5 6,5 35 19 46 25 SSW
01.08.2020 22:00:00 7,1 7,1 34 18 - - SSW
01.08.2020 21:00:00 6,9 6,9 26 14 - - SW
01.08.2020 20:00:00 6,7 6,7 35 19 - - SSW
01.08.2020 19:00:00 6,9 6,8 31 17 - - S
01.08.2020 18:00:00 7,1 7,0 35 19 48 26 SSW
01.08.2020 17:00:00 7,2 7,0 34 18 - - SSW
01.08.2020 16:00:00 7,4 7,0 35 19 46 25 SSW
01.08.2020 15:00:00 8,4 6,9 29 16 48 26 SW
01.08.2020 14:00:00 7,6 6,7 37 20 48 26 SSW
01.08.2020 13:00:00 7,7 7,4 35 19 - - SSW
01.08.2020 12:00:00 7,5 7,2 26 14 - - SW
01.08.2020 11:00:00 7,4 7,3 22 12 - - SW
01.08.2020 10:00:00 6,8 6,8 28 15 - - SW
01.08.2020 09:00:00 7,0 7,0 24 13 - - SW
01.08.2020 08:00:00 6,8 6,8 18 10 - - SW
01.08.2020 07:00:00 6,5 6,5 24 13 - - WSW
01.08.2020 06:00:00 6,6 6,6 35 19 - - WSW
01.08.2020 05:00:00 6,7 6,7 29 16 - - W
01.08.2020 04:00:00 7,0 7,0 34 18 - - WSW
01.08.2020 03:00:00 7,3 7,3 35 19 - - WSW
01.08.2020 02:00:00 7,2 7,2 34 18 48 26 W
01.08.2020 01:00:00 9,6 9,6 37 20 - - SSW
01.08.2020 00:00:00 9,8 9,8 39 21 48 26 SSW
31.07.2020 23:00:00 10,0 10,0 37 20 46 25 SSW
31.07.2020 22:00:00 10,0 10,0 39 21 52 28 SSW
31.07.2020 21:00:00 10,4 10,4 44 24 55 30 SSW
31.07.2020 20:00:00 11,6 11,6 46 25 98 53 SSW
31.07.2020 19:00:00 12,0 12,0 70 38 91 49 S
31.07.2020 18:00:00 11,6 11,0 61 33 74 40 SSW
31.07.2020 17:00:00 13,5 9,9 34 18 74 40 S
31.07.2020 16:00:00 16,3 9,9 37 20 68 37 S
31.07.2020 15:00:00 17,8 10,0 44 24 63 34 SSE
31.07.2020 14:00:00 17,4 9,6 35 19 85 46 SSE
31.07.2020 13:00:00 17,5 9,1 26 14 74 40 SE
31.07.2020 12:00:00 17,0 8,3 50 27 94 51 SSE
31.07.2020 11:00:00 16,6 8,4 42 23 68 37 SSE
31.07.2020 10:00:00 15,1 8,6 18 10 67 36 SE
31.07.2020 09:00:00 14,7 8,8 9 5 - - E
31.07.2020 08:00:00 14,0 8,3 15 8 - - ESE
31.07.2020 07:00:00 13,5 7,9 9 5 48 26 NNW
31.07.2020 06:00:00 13,2 7,3 15 8 54 29 SE
31.07.2020 05:00:00 12,9 6,4 28 15 65 35 SE
31.07.2020 04:00:00 12,4 4,7 16 9 48 26 ESE
31.07.2020 03:00:00 13,0 3,8 11 6 78 42 NE
31.07.2020 02:00:00 12,8 3,9 26 14 78 42 SE
31.07.2020 01:00:00 12,7 6,6 26 14 67 36 SE
31.07.2020 00:00:00 12,6 9,3 18 10 57 31 SE
30.07.2020 23:00:00 12,3 11,2 15 8 57 31 ESE
30.07.2020 22:00:00 12,1 12,1 24 13 55 30 ESE
30.07.2020 21:00:00 11,6 11,6 18 10 52 28 SE
30.07.2020 20:00:00 11,6 11,5 28 15 52 28 SE
30.07.2020 19:00:00 11,2 11,2 22 12 - - SE
30.07.2020 18:00:00 10,6 10,5 15 8 - - SE
30.07.2020 17:00:00 10,3 10,2 13 7 - - SE
30.07.2020 16:00:00 10,0 9,9 9 5 - - SE
30.07.2020 15:00:00 9,6 9,4 13 7 48 26 ESE
30.07.2020 14:00:00 9,0 8,1 26 14 48 26 ESE
30.07.2020 13:00:00 9,0 7,1 26 14 48 26 ESE
30.07.2020 12:00:00 8,7 6,8 18 10 - - ESE
30.07.2020 11:00:00 7,9 5,3 24 13 48 26 ESE
30.07.2020 10:00:00 7,1 4,3 21 11 46 25 ESE
30.07.2020 09:00:00 6,0 4,0 21 11 - - ESE
30.07.2020 08:00:00 6,3 3,8 16 9 - - ESE
30.07.2020 07:00:00 6,3 4,2 16 9 46 25 ESE
30.07.2020 06:00:00 5,3 3,7 21 11 - - ESE
30.07.2020 05:00:00 6,2 4,2 16 9 - - ESE
30.07.2020 04:00:00 5,6 4,1 11 6 - - ESE
30.07.2020 03:00:00 5,7 4,2 13 7 - - SE
30.07.2020 02:00:00 5,6 5,1 13 7 - - ESE
30.07.2020 01:00:00 5,5 4,8 13 7 - - ESE
30.07.2020 00:00:00 5,6 4,8 9 5 - - ESE
29.07.2020 23:00:00 5,4 4,7 5 3 - - SE
29.07.2020 22:00:00 6,0 5,2 8 4 - - SSE
29.07.2020 21:00:00 6,4 4,6 2 1 - - SE
29.07.2020 20:00:00 6,7 3,6 4 2 - - NW
29.07.2020 19:00:00 6,7 4,5 8 4 - - NW
29.07.2020 18:00:00 7,2 4,2 13 7 - - WNW
29.07.2020 17:00:00 6,7 4,1 18 10 - - WNW
29.07.2020 16:00:00 6,9 3,7 21 11 - - WNW
29.07.2020 15:00:00 6,8 4,7 22 12 - - WNW

tt = temperature
td = dewpoint
ff = wind speed
fx = gusts
dd = wind direction

Next stations